Time;durP1;ratioP1;P1;durP2;ratioP2;P2;SDS_P1;SDS_P2;PMS_P1;PMS_P2;Temp;Humidity;BMP_temperature;BMP_pressure;BME280_temperature;BME280_humidity;BME280_pressure;Samples;Min_cycle;Max_cycle;Signal;HPM_P1;HPM_P2
2022/03/23 00:00:40;;;;;;;;;;;;;;;22.27;34.23;96328.81;2049043;28;1115;-56
2022/03/23 00:01:42;;;;;;;;;;;;;;;22.28;34.24;96325.94;2048765;28;998;-56
2022/03/23 00:02:43;;;;;;;;;;;;;;;22.30;33.98;96317.75;2043782;28;1572;-55
2022/03/23 00:03:46;;;;;;;;;;;;;;;22.26;34.29;96316.47;2048923;28;1016;-54
2022/03/23 00:04:48;;;;;;;;;;;;;;;22.24;34.24;96319.31;2047957;28;1488;-55
2022/03/23 00:05:49;;;;;;;;;;;;;;;22.21;34.24;96320.50;2049062;29;1630;-54
2022/03/23 00:06:51;;;;;;;;;;;;;;;22.20;34.45;96318.88;2048321;28;1532;-54
2022/03/23 00:07:52;;;;;;;;;;;;;;;22.19;34.53;96313.69;2048763;29;1659;-55
2022/03/23 00:08:54;;;;;;;;;;;;;;;22.18;34.37;96320.06;2047225;28;1959;-58
2022/03/23 00:09:56;;;;;;;;;;;;;;;22.20;34.16;96315.38;2048862;29;1004;-54
2022/03/23 00:10:58;;;;;;;;;;;;;;;22.22;34.13;96310.66;2048882;28;966;-55
2022/03/23 00:12:00;;;;;;;;;;;;;;;22.21;34.24;96312.50;2049128;28;1101;-54
2022/03/23 00:13:02;;;;;;;;;;;;;;;22.22;34.24;96311.47;2048934;29;1191;-54
2022/03/23 00:14:06;;;;;;;;;;;;;;;22.22;34.19;96314.16;2043273;28;1489;-55
2022/03/23 00:15:07;;;;;;;;;;;;;;;22.27;34.33;96312.78;2048995;29;1012;-56
2022/03/23 00:16:09;;;;;;;;;;;;;;;22.27;34.31;96304.75;2048742;28;1655;-55
2022/03/23 00:17:11;;;;;;;;;;;;;;;22.28;34.30;96315.25;2048373;29;1704;-56
2022/03/23 00:18:12;;;;;;;;;;;;;;;22.34;34.37;96303.84;2049054;29;1504;-57
2022/03/23 00:19:14;;;;;;;;;;;;;;;22.45;33.86;96305.19;2048017;28;1598;-57
2022/03/23 00:20:16;;;;;;;;;;;;;;;22.59;33.64;96306.19;2047997;28;1390;-57
2022/03/23 00:21:17;;;;;;;;;;;;;;;22.65;33.85;96306.31;2049041;28;1056;-60
2022/03/23 00:22:20;;;;;;;;;;;;;;;22.73;33.33;96299.19;2050026;28;1293;-58
2022/03/23 00:23:22;;;;;;;;;;;;;;;22.79;33.55;96303.78;2048859;29;1654;-58
2022/03/23 00:24:24;;;;;;;;;;;;;;;22.84;33.41;96304.03;2043844;28;1504;-57
2022/03/23 00:25:26;;;;;;;;;;;;;;;22.86;33.15;96304.69;2046731;28;1638;-58
2022/03/23 00:26:27;;;;;;;;;;;;;;;22.88;33.11;96299.97;2041224;29;1076;-59
2022/03/23 00:27:29;;;;;;;;;;;;;;;22.92;33.08;96298.59;2045502;28;1669;-61
2022/03/23 00:28:30;;;;;;;;;;;;;;;22.94;33.20;96304.59;2048849;29;1985;-59
2022/03/23 00:29:32;;;;;;;;;;;;;;;22.97;33.03;96292.66;2048182;28;1533;-59
2022/03/23 00:30:34;;;;;;;;;;;;;;;23.01;33.12;96300.16;2048845;28;1589;-59
2022/03/23 00:31:55;;;;;;;;;;;;;;;23.02;32.74;96300.97;2048023;28;2267;-59
2022/03/23 00:32:57;;;;;;;;;;;;;;;23.05;32.92;96297.91;2047260;29;1454;-59
2022/03/23 00:33:58;;;;;;;;;;;;;;;23.07;32.73;96296.72;2048371;28;1163;-58
2022/03/23 00:35:00;;;;;;;;;;;;;;;23.09;32.58;96297.34;2042620;28;1504;-61
2022/03/23 00:36:02;;;;;;;;;;;;;;;23.09;32.64;96297.34;2048437;28;1666;-58
2022/03/23 00:37:04;;;;;;;;;;;;;;;23.09;32.79;96296.53;2048763;29;1689;-58
2022/03/23 00:38:05;;;;;;;;;;;;;;;23.06;32.65;96297.75;2048126;28;1480;-58
2022/03/23 00:39:07;;;;;;;;;;;;;;;23.07;32.83;96296.72;2048312;28;1744;-61
2022/03/23 00:40:09;;;;;;;;;;;;;;;23.09;32.81;96297.34;2049003;29;1094;-58
2022/03/23 00:41:11;;;;;;;;;;;;;;;23.10;32.68;96288.28;2048090;28;1597;-59
2022/03/23 00:42:13;;;;;;;;;;;;;;;23.09;33.04;96296.53;2040425;29;1135;-59
2022/03/23 00:43:14;;;;;;;;;;;;;;;23.09;32.72;96286.66;2039663;29;1545;-58
2022/03/23 00:44:16;;;;;;;;;;;;;;;23.10;32.58;96288.28;2048789;28;1167;-58
2022/03/23 00:45:18;;;;;;;;;;;;;;;23.08;32.65;96290.34;2048873;28;1187;-57
2022/03/23 00:46:20;;;;;;;;;;;;;;;23.08;32.61;96295.72;2043139;28;1649;-58
2022/03/23 00:47:22;;;;;;;;;;;;;;;23.06;32.77;96292.38;2047286;28;1508;-60
2022/03/23 00:48:24;;;;;;;;;;;;;;;23.08;32.96;96287.69;2048668;29;1427;-59
2022/03/23 00:49:26;;;;;;;;;;;;;;;23.05;32.68;96289.88;2048520;29;2038;-58
2022/03/23 00:50:28;;;;;;;;;;;;;;;23.07;33.01;96288.69;2047737;28;1492;-58
2022/03/23 00:51:29;;;;;;;;;;;;;;;23.09;32.74;96285.81;2048954;28;1048;-57
2022/03/23 00:52:31;;;;;;;;;;;;;;;23.08;32.79;96290.34;2048949;28;1079;-59
2022/03/23 00:53:32;;;;;;;;;;;;;;;23.05;33.17;96288.06;2048250;28;1059;-59
2022/03/23 00:54:34;;;;;;;;;;;;;;;23.07;33.02;96291.34;2048740;28;1086;-58
2022/03/23 00:55:36;;;;;;;;;;;;;;;23.08;32.95;96284.16;2048877;28;1103;-60
2022/03/23 00:56:38;;;;;;;;;;;;;;;23.09;32.65;96289.31;2045792;28;1603;-58
2022/03/23 00:57:39;;;;;;;;;;;;;;;23.10;32.98;96290.16;2045485;28;1483;-58
2022/03/23 00:58:41;;;;;;;;;;;;;;;23.11;32.78;96287.28;2048887;28;1600;-59
2022/03/23 00:59:42;;;;;;;;;;;;;;;23.11;32.77;96287.28;2047860;28;1556;-58
2022/03/23 01:00:45;;;;;;;;;;;;;;;23.12;32.62;96288.13;2048675;28;1159;-58
2022/03/23 01:01:48;;;;;;;;;;;;;;;23.12;32.58;96288.94;2047995;28;1495;-59
2022/03/23 01:02:50;;;;;;;;;;;;;;;23.12;33.04;96285.44;2048203;29;1493;-58
2022/03/23 01:03:52;;;;;;;;;;;;;;;23.12;32.96;96288.13;2048705;29;985;-61
2022/03/23 01:04:54;;;;;;;;;;;;;;;23.13;32.85;96287.09;2048412;28;1017;-59
2022/03/23 01:05:56;;;;;;;;;;;;;;;23.10;33.09;96288.28;2048448;29;1714;-58
2022/03/23 01:06:58;;;;;;;;;;;;;;;23.11;32.97;96287.28;2048324;29;1676;-59
2022/03/23 01:07:59;;;;;;;;;;;;;;;23.13;32.64;96287.91;2044112;28;1027;-58
2022/03/23 01:09:01;;;;;;;;;;;;;;;23.12;33.20;96282.75;2047527;28;1906;-58
2022/03/23 01:10:03;;;;;;;;;;;;;;;23.12;32.80;96291.63;2048663;28;1675;-59
2022/03/23 01:11:05;;;;;;;;;;;;;;;23.11;33.15;96289.16;2048700;29;1067;-59
2022/03/23 01:12:08;;;;;;;;;;;;;;;23.10;33.31;96290.97;2048693;29;1107;-58
2022/03/23 01:13:10;;;;;;;;;;;;;;;23.00;33.11;96290.47;2048551;29;1168;-56
2022/03/23 01:14:11;;;;;;;;;;;;;;;22.96;33.34;96289.16;2039170;29;1446;-55
2022/03/23 01:15:18;;;;;;;;;;;;;;;22.92;33.41;96290.56;2039263;29;1493;-56
2022/03/23 01:16:19;;;;;;;;;;;;;;;22.87;33.69;96287.59;2040488;29;1128;-55
2022/03/23 01:17:21;;;;;;;;;;;;;;;22.90;33.49;96293.41;2053864;28;1692;-55
2022/03/23 01:18:23;;;;;;;;;;;;;;;22.89;33.71;96285.56;2055455;28;1155;-56
2022/03/23 01:19:27;;;;;;;;;;;;;;;22.88;33.78;96283.91;2044149;28;1639;-54
2022/03/23 01:20:30;;;;;;;;;;;;;;;22.84;33.67;96286.13;2048859;28;973;-55
2022/03/23 01:21:32;;;;;;;;;;;;;;;22.73;33.99;96280.44;2047030;28;1519;-56
2022/03/23 01:22:33;;;;;;;;;;;;;;;22.64;33.88;96283.22;2048593;28;1111;-58
2022/03/23 01:23:35;;;;;;;;;;;;;;;22.58;34.24;96281.31;2047871;28;1360;-58
2022/03/23 01:24:36;;;;;;;;;;;;;;;22.53;34.33;96281.03;2048672;29;1056;-57
2022/03/23 01:25:38;;;;;;;;;;;;;;;22.50;34.57;96281.41;2048206;29;1550;-59
2022/03/23 01:26:40;;;;;;;;;;;;;;;22.50;34.76;96281.41;2048151;29;1663;-57
2022/03/23 01:27:42;;;;;;;;;;;;;;;22.49;34.54;96278.94;2047431;29;1453;-58
2022/03/23 01:28:44;;;;;;;;;;;;;;;22.47;34.56;96279.09;2048561;28;1113;-57
2022/03/23 01:29:45;;;;;;;;;;;;;;;22.42;34.53;96276.16;2043236;28;1907;-58
2022/03/23 01:30:47;;;;;;;;;;;;;;;22.41;34.53;96275.34;2047943;28;1636;-58
2022/03/23 01:31:49;;;;;;;;;;;;;;;22.42;34.70;96279.66;2048602;28;1156;-57
2022/03/23 01:32:50;;;;;;;;;;;;;;;22.43;34.69;96281.34;2048702;28;1070;-58
2022/03/23 01:33:52;;;;;;;;;;;;;;;22.43;34.64;96273.31;2048616;28;1000;-63
2022/03/23 01:34:53;;;;;;;;;;;;;;;22.59;34.65;96277.59;2048503;28;1007;-63
2022/03/23 01:35:55;;;;;;;;;;;;;;;22.71;34.22;96277.13;2047607;28;1660;-59
2022/03/23 01:36:56;;;;;;;;;;;;;;;22.75;34.35;96278.41;2046289;28;1393;-61
2022/03/23 01:37:58;;;;;;;;;;;;;;;22.80;34.35;96274.16;2048168;29;1054;-59
2022/03/23 01:39:00;;;;;;;;;;;;;;;22.86;34.16;96277.94;2048465;28;992;-59
2022/03/23 01:40:03;;;;;;;;;;;;;;;22.88;34.00;96279.41;2048613;28;1708;-60
2022/03/23 01:41:05;;;;;;;;;;;;;;;22.94;33.83;96277.81;2041654;28;1744;-59
2022/03/23 01:42:06;;;;;;;;;;;;;;;22.93;33.91;96278.81;2048538;28;1737;-60
2022/03/23 01:43:08;;;;;;;;;;;;;;;22.95;33.96;96284.00;2048388;29;984;-59
2022/03/23 01:44:13;;;;;;;;;;;;;;;22.95;33.70;96281.31;2048649;29;1034;-60
2022/03/23 01:45:15;;;;;;;;;;;;;;;22.95;33.86;96278.66;2048083;29;1086;-62
2022/03/23 01:46:18;;;;;;;;;;;;;;;22.96;33.50;96281.16;2048183;28;1641;-63
2022/03/23 01:47:19;;;;;;;;;;;;;;;22.97;33.87;96277.47;2049243;28;1513;-59
2022/03/23 01:48:22;;;;;;;;;;;;;;;22.97;33.93;96277.47;2049942;29;1618;-59
2022/03/23 01:49:23;;;;;;;;;;;;;;;22.95;33.83;96279.50;2049846;29;2001;-61
2022/03/23 01:50:25;;;;;;;;;;;;;;;22.95;34.25;96274.16;2050193;28;1104;-59
2022/03/23 01:51:26;;;;;;;;;;;;;;;22.94;33.88;96275.16;2049791;28;1047;-58
2022/03/23 01:52:30;;;;;;;;;;;;;;;22.94;34.11;96277.81;2046556;28;1090;-60
2022/03/23 01:53:32;;;;;;;;;;;;;;;22.95;34.06;96275.97;2049840;29;1008;-59
2022/03/23 01:54:34;;;;;;;;;;;;;;;22.96;33.79;96281.16;2050066;28;1191;-59
2022/03/23 01:55:35;;;;;;;;;;;;;;;22.93;33.88;96286.84;2048785;28;1412;-60
2022/03/23 01:56:37;;;;;;;;;;;;;;;22.87;34.00;96279.59;2050154;29;1000;-59
2022/03/23 01:57:40;;;;;;;;;;;;;;;22.75;34.14;96283.78;2050046;29;1155;-57
2022/03/23 01:58:42;;;;;;;;;;;;;;;22.66;34.22;96272.34;2049940;29;1096;-58
2022/03/23 01:59:44;;;;;;;;;;;;;;;22.59;34.77;96274.09;2049986;29;1015;-58
2022/03/23 02:00:46;;;;;;;;;;;;;;;22.54;34.78;96274.69;2048058;28;1937;-58
2022/03/23 02:01:47;;;;;;;;;;;;;;;22.52;34.87;96274.03;2050048;28;1009;-57
2022/03/23 02:02:49;;;;;;;;;;;;;;;22.50;34.90;96273.38;2045325;28;1045;-57
2022/03/23 02:03:52;;;;;;;;;;;;;;;22.49;34.75;96273.59;2049563;28;1105;-57
2022/03/23 02:04:54;;;;;;;;;;;;;;;22.47;34.97;96271.09;2049858;29;1113;-58
2022/03/23 02:05:55;;;;;;;;;;;;;;;22.44;35.28;96274.97;2049330;28;1623;-58
2022/03/23 02:06:57;;;;;;;;;;;;;;;22.45;35.09;96273.09;2049787;29;1164;-57
2022/03/23 02:07:58;;;;;;;;;;;;;;;22.41;34.87;96278.00;2049383;29;1433;-57
2022/03/23 02:09:00;;;;;;;;;;;;;;;22.41;35.33;96282.53;2049840;29;1485;-57
2022/03/23 02:10:03;;;;;;;;;;;;;;;22.39;35.38;96269.34;2049970;29;1922;-57
2022/03/23 02:11:05;;;;;;;;;;;;;;;22.37;35.04;96274.06;2049482;29;1332;-59
2022/03/23 02:12:09;;;;;;;;;;;;;;;22.39;35.52;96269.34;2041947;29;1104;-59
2022/03/23 02:13:11;;;;;;;;;;;;;;;22.40;35.47;96275.53;2041849;29;1111;-59
2022/03/23 02:14:13;;;;;;;;;;;;;;;22.41;35.33;96275.34;2037127;29;1088;-58
2022/03/23 02:15:16;;;;;;;;;;;;;;;22.41;35.41;96282.53;2054190;28;1501;-58
2022/03/23 02:16:17;;;;;;;;;;;;;;;22.40;35.48;96268.34;2056617;28;1683;-57
2022/03/23 02:17:19;;;;;;;;;;;;;;;22.43;35.11;96283.19;2049723;29;1635;-59
2022/03/23 02:18:21;;;;;;;;;;;;;;;22.42;35.50;96273.47;2049135;28;1497;-59
2022/03/23 02:19:22;;;;;;;;;;;;;;;22.42;35.24;96268.97;2048022;28;1412;-58
2022/03/23 02:20:24;;;;;;;;;;;;;;;22.42;35.48;96270.81;2049808;28;1091;-58
2022/03/23 02:21:28;;;;;;;;;;;;;;;22.42;35.35;96276.97;2049856;29;1005;-58
2022/03/23 02:22:29;;;;;;;;;;;;;;;22.40;35.52;96276.34;2040684;29;1013;-58
2022/03/23 02:23:31;;;;;;;;;;;;;;;22.42;35.51;96276.16;2040613;29;1305;-59
2022/03/23 02:24:33;;;;;;;;;;;;;;;22.41;35.53;96277.19;2039792;29;1043;-58
2022/03/23 02:25:34;;;;;;;;;;;;;;;22.41;35.33;96274.50;2046116;28;1483;-58
2022/03/23 02:26:37;;;;;;;;;;;;;;;22.39;35.29;96273.84;2049604;29;1739;-58
2022/03/23 02:27:40;;;;;;;;;;;;;;;22.37;35.34;96276.72;2048696;28;1804;-59
2022/03/23 02:28:42;;;;;;;;;;;;;;;22.38;35.56;96277.56;2049317;28;1482;-58
2022/03/23 02:29:44;;;;;;;;;;;;;;;22.37;35.72;96276.72;2049244;28;1991;-57
2022/03/23 02:30:46;;;;;;;;;;;;;;;22.37;35.36;96275.88;2049130;28;1523;-57
2022/03/23 02:31:48;;;;;;;;;;;;;;;22.37;35.44;96276.72;2049663;29;1015;-59
2022/03/23 02:32:49;;;;;;;;;;;;;;;22.38;35.33;96277.56;2049783;28;949;-58
2022/03/23 02:33:52;;;;;;;;;;;;;;;22.39;35.61;96285.38;2048719;28;1587;-57
2022/03/23 02:34:54;;;;;;;;;;;;;;;22.37;35.62;96287.44;2049775;28;1100;-58
2022/03/23 02:35:55;;;;;;;;;;;;;;;22.40;35.26;96286.22;2043957;28;1532;-58
2022/03/23 02:36:58;;;;;;;;;;;;;;;22.38;35.59;96288.25;2049037;29;1272;-58
2022/03/23 02:37:59;;;;;;;;;;;;;;;22.38;35.53;96290.94;2049079;29;2143;-58
2022/03/23 02:39:01;;;;;;;;;;;;;;;22.40;35.64;96299.59;2042585;28;1642;-58
2022/03/23 02:40:03;;;;;;;;;;;;;;;22.39;35.50;96296.06;2054645;28;1511;-58
2022/03/23 02:41:04;;;;;;;;;;;;;;;22.40;35.54;96291.56;2056551;28;1265;-58
2022/03/23 02:42:06;;;;;;;;;;;;;;;22.39;35.54;96290.72;2049369;28;1615;-58
2022/03/23 02:43:08;;;;;;;;;;;;;;;22.38;35.68;96293.59;2048623;29;1470;-57
2022/03/23 02:44:16;;;;;;;;;;;;;;;22.36;35.71;96298.28;2049339;29;1637;-58
2022/03/23 02:45:18;;;;;;;;;;;;;;;22.37;35.89;96297.28;2049246;29;1174;-57
2022/03/23 02:46:20;;;;;;;;;;;;;;;22.38;35.65;96294.44;2049538;29;1120;-58
2022/03/23 02:47:22;;;;;;;;;;;;;;;22.40;35.69;96299.59;2043083;28;1472;-58
2022/03/23 02:48:23;;;;;;;;;;;;;;;22.39;35.61;96300.59;2048992;29;1579;-57
2022/03/23 02:49:25;;;;;;;;;;;;;;;22.39;35.59;96297.91;2049300;29;1688;-58
2022/03/23 02:50:27;;;;;;;;;;;;;;;22.39;35.71;96295.25;2049638;29;2021;-57
2022/03/23 02:51:29;;;;;;;;;;;;;;;22.38;35.54;96301.63;2049742;29;1082;-58
2022/03/23 02:52:31;;;;;;;;;;;;;;;22.37;35.78;96302.63;2046734;29;1517;-57
2022/03/23 03:01:52;;;;;;;;;;;;;;;22.30;35.88;96304.38;2049544;29;1039;-57
2022/03/23 03:02:54;;;;;;;;;;;;;;;22.32;35.90;96300.50;2049623;28;1091;-57
2022/03/23 03:03:56;;;;;;;;;;;;;;;22.30;35.88;96293.69;2049265;28;1163;-58
2022/03/23 03:04:59;;;;;;;;;;;;;;;22.31;35.74;96304.19;2049495;29;1052;-57
2022/03/23 03:06:06;;;;;;;;;;;;;;;22.33;35.84;96301.34;2049177;28;1517;-58
2022/03/23 03:07:08;;;;;;;;;;;;;;;22.30;35.87;96301.72;2049035;28;989;-57
2022/03/23 03:09:30;;;;;;;;;;;;;;;22.30;35.84;96301.72;2044700;28;1618;-58
2022/03/23 03:10:32;;;;;;;;;;;;;;;22.28;36.09;96301.06;2049414;29;1926;-57
2022/03/23 03:11:34;;;;;;;;;;;;;;;22.27;36.03;96296.75;2049488;29;1064;-57
2022/03/23 03:12:36;;;;;;;;;;;;;;;22.27;35.84;96302.09;2049444;29;1113;-57
2022/03/23 03:13:39;;;;;;;;;;;;;;;22.29;36.14;96300.06;2049461;29;1012;-57
2022/03/23 03:14:40;;;;;;;;;;;;;;;22.29;35.79;96303.56;2048091;28;1521;-57
2022/03/23 03:15:42;;;;;;;;;;;;;;;22.30;35.75;96305.22;2049352;28;1309;-57
2022/03/23 03:16:43;;;;;;;;;;;;;;;22.32;35.81;96302.38;2049374;29;1124;-57
2022/03/23 03:17:48;;;;;;;;;;;;;;;22.35;35.68;96302.00;2049392;29;1083;-57
2022/03/23 03:18:50;;;;;;;;;;;;;;;22.33;35.72;96302.16;2047697;28;1502;-58
2022/03/23 03:19:51;;;;;;;;;;;;;;;22.34;35.86;96300.31;2044639;28;1653;-56
2022/03/23 03:20:53;;;;;;;;;;;;;;;22.36;35.63;96306.31;2048439;28;1706;-57
2022/03/23 03:21:55;;;;;;;;;;;;;;;22.37;35.97;96307.97;2048370;29;1100;-57
2022/03/23 03:22:58;;;;;;;;;;;;;;;22.36;35.99;96309.81;2048580;29;1175;-57
2022/03/23 03:24:01;;;;;;;;;;;;;;;22.37;35.52;96308.81;2049095;29;1705;-58
2022/03/23 03:25:03;;;;;;;;;;;;;;;22.38;35.78;96305.13;2048692;28;1541;-58
2022/03/23 03:26:06;;;;;;;;;;;;;;;22.38;36.01;96315.00;2049417;28;1006;-58
2022/03/23 03:27:09;;;;;;;;;;;;;;;22.38;36.07;96307.78;2048501;28;1639;-58
2022/03/23 03:28:10;;;;;;;;;;;;;;;22.38;36.07;96304.28;2049297;28;1112;-58
2022/03/23 03:29:12;;;;;;;;;;;;;;;22.38;35.82;96304.28;2048586;28;1636;-58
2022/03/23 03:30:15;;;;;;;;;;;;;;;22.39;36.11;96303.28;2049367;29;1023;-58
2022/03/23 03:31:17;;;;;;;;;;;;;;;22.39;35.97;96300.59;2044577;28;1603;-58
2022/03/23 03:32:18;;;;;;;;;;;;;;;22.40;35.92;96310.28;2049324;29;1039;-58
2022/03/23 03:33:20;;;;;;;;;;;;;;;22.38;35.88;96298.94;2049155;29;1073;-59
2022/03/23 03:34:21;;;;;;;;;;;;;;;22.37;35.92;96302.63;2047453;28;1621;-58
2022/03/23 03:35:23;;;;;;;;;;;;;;;22.38;35.91;96304.28;2049146;28;1100;-58
2022/03/23 03:36:25;;;;;;;;;;;;;;;22.36;36.08;96307.13;2049106;29;1115;-58
2022/03/23 03:37:26;;;;;;;;;;;;;;;22.37;36.04;96302.63;2049084;29;1171;-58
2022/03/23 03:38:28;;;;;;;;;;;;;;;22.37;36.19;96298.13;2048705;28;1617;-57
2022/03/23 03:39:30;;;;;;;;;;;;;;;22.38;36.10;96301.63;2049191;29;1657;-59
2022/03/23 03:40:32;;;;;;;;;;;;;;;22.37;35.96;96303.47;2049117;28;1288;-56
2022/03/23 03:41:34;;;;;;;;;;;;;;;22.36;36.30;96300.97;2048723;28;1456;-58
2022/03/23 03:42:36;;;;;;;;;;;;;;;22.34;36.21;96308.34;2045027;28;1642;-58
2022/03/23 03:43:39;;;;;;;;;;;;;;;22.34;35.86;96305.66;2048739;29;1021;-58
2022/03/23 03:44:41;;;;;;;;;;;;;;;22.34;35.92;96305.66;2048945;29;1629;-58
2022/03/23 03:45:43;;;;;;;;;;;;;;;22.37;36.05;96302.63;2049135;29;1281;-57
2022/03/23 03:46:46;;;;;;;;;;;;;;;22.38;35.75;96301.63;2049246;29;1095;-59
2022/03/23 03:47:47;;;;;;;;;;;;;;;22.38;35.99;96298.94;2047370;28;1472;-58
2022/03/23 03:48:49;;;;;;;;;;;;;;;22.40;35.71;96300.44;2048347;28;1346;-59
2022/03/23 03:49:51;;;;;;;;;;;;;;;22.40;35.74;96302.28;2049105;29;1108;-59
2022/03/23 03:50:52;;;;;;;;;;;;;;;22.40;35.76;96299.59;2049171;29;1910;-59
2022/03/23 03:51:54;;;;;;;;;;;;;;;22.41;35.99;96301.25;2048664;29;1100;-58
2022/03/23 03:52:56;;;;;;;;;;;;;;;22.40;35.75;96302.28;2044507;28;1263;-59
2022/03/23 03:53:57;;;;;;;;;;;;;;;22.39;35.90;96297.91;2048007;28;1568;-59
2022/03/23 03:54:59;;;;;;;;;;;;;;;22.39;35.97;96301.41;2048528;28;1488;-58
2022/03/23 03:56:01;;;;;;;;;;;;;;;22.39;35.79;96303.28;2049056;28;1755;-58
2022/03/23 03:57:03;;;;;;;;;;;;;;;22.38;35.95;96297.09;2049161;29;1028;-58
2022/03/23 03:58:04;;;;;;;;;;;;;;;22.38;35.54;96304.28;2047300;28;1529;-59
2022/03/23 03:59:06;;;;;;;;;;;;;;;22.38;35.96;96309.66;2048603;28;1107;-58
2022/03/23 04:00:08;;;;;;;;;;;;;;;22.36;35.76;96296.44;2049255;28;1073;-58
2022/03/23 04:01:10;;;;;;;;;;;;;;;22.36;35.98;96307.13;2048912;28;1054;-58
2022/03/23 04:02:14;;;;;;;;;;;;;;;22.37;36.12;96305.28;2056160;28;1081;-59
2022/03/23 04:03:16;;;;;;;;;;;;;;;22.33;33.28;96307.50;2048915;28;1759;-58
2022/03/23 04:04:17;;;;;;;;;;;;;;;19.68;23.97;96308.59;2044043;28;1574;-56
2022/03/23 04:05:19;;;;;;;;;;;;;;;18.33;25.33;96306.97;2048053;28;1746;-56
2022/03/23 04:06:20;;;;;;;;;;;;;;;17.32;25.70;96307.47;2048735;28;1135;-56
2022/03/23 04:07:22;;;;;;;;;;;;;;;16.69;25.85;96321.56;2049012;28;1108;-57
2022/03/23 04:08:23;;;;;;;;;;;;;;;16.19;26.26;96314.00;2047587;28;1584;-56
2022/03/23 04:09:26;;;;;;;;;;;;;;;16.05;25.78;96318.00;2048196;28;1387;-57
2022/03/23 04:10:28;;;;;;;;;;;;;;;15.93;25.98;96321.78;2040490;29;1112;-56
2022/03/23 04:11:30;;;;;;;;;;;;;;;15.65;25.77;96320.84;2040331;29;1931;-56
2022/03/23 04:12:31;;;;;;;;;;;;;;;15.28;25.20;96314.50;2040838;29;1589;-57
2022/03/23 04:13:33;;;;;;;;;;;;;;;15.22;25.18;96312.41;2048662;28;1027;-56
2022/03/23 04:14:34;;;;;;;;;;;;;;;14.98;25.25;96318.13;2049022;28;1108;-56
2022/03/23 04:15:36;;;;;;;;;;;;;;;15.03;25.40;96309.78;2043410;28;1275;-57
2022/03/23 04:16:39;;;;;;;;;;;;;;;15.14;25.01;96314.06;2048490;29;1071;-57
2022/03/23 04:17:41;;;;;;;;;;;;;;;14.88;25.36;96321.72;2047264;28;1537;-57
2022/03/23 04:18:42;;;;;;;;;;;;;;;14.58;25.15;96321.69;2056056;28;1706;-56
2022/03/23 04:19:44;;;;;;;;;;;;;;;14.22;25.21;96319.59;2056259;28;1000;-57
2022/03/23 04:20:46;;;;;;;;;;;;;;;13.99;25.56;96324.22;2047593;28;1743;-56
2022/03/23 04:21:47;;;;;;;;;;;;;;;14.04;25.94;96316.75;2048445;29;1771;-56
2022/03/23 04:22:49;;;;;;;;;;;;;;;13.83;25.84;96314.16;2047831;28;1644;-57
2022/03/23 04:23:50;;;;;;;;;;;;;;;14.09;26.02;96317.19;2048499;28;1476;-56
2022/03/23 04:24:52;;;;;;;;;;;;;;;13.84;25.84;96315.84;2049040;28;1092;-56
2022/03/23 04:25:54;;;;;;;;;;;;;;;13.88;25.81;96317.22;2044433;29;1192;-57
2022/03/23 04:26:56;;;;;;;;;;;;;;;13.87;25.93;96311.13;2048745;28;1639;-57
2022/03/23 04:27:58;;;;;;;;;;;;;;;13.70;25.86;96314.38;2048809;28;1082;-57
2022/03/23 04:28:59;;;;;;;;;;;;;;;13.64;25.97;96315.72;2049701;28;1373;-56
2022/03/23 04:30:01;;;;;;;;;;;;;;;13.41;25.81;96322.94;2048823;28;1445;-57
2022/03/23 04:31:03;;;;;;;;;;;;;;;13.38;26.15;96319.72;2047933;28;1906;-56
2022/03/23 04:32:05;;;;;;;;;;;;;;;13.33;26.53;96320.09;2048672;29;1598;-57
2022/03/23 04:33:07;;;;;;;;;;;;;;;13.41;26.18;96315.03;2048877;29;985;-56
2022/03/23 04:34:09;;;;;;;;;;;;;;;13.19;26.42;96320.38;2049066;29;1083;-57
2022/03/23 04:35:12;;;;;;;;;;;;;;;13.28;26.29;96320.47;2048354;29;1653;-57
2022/03/23 04:36:14;;;;;;;;;;;;;;;13.27;26.15;96320.63;2048298;29;1654;-56
2022/03/23 04:37:15;;;;;;;;;;;;;;;13.57;26.54;96322.47;2042998;28;2013;-57
2022/03/23 04:38:17;;;;;;;;;;;;;;;13.70;25.89;96320.47;2048737;29;1752;-56
2022/03/23 04:39:18;;;;;;;;;;;;;;;13.50;26.37;96323.97;2048573;29;1673;-55
2022/03/23 04:40:22;;;;;;;;;;;;;;;13.45;26.62;96328.78;2048746;29;2198;-56
2022/03/23 04:41:23;;;;;;;;;;;;;;;13.46;27.49;96328.66;2048616;28;1467;-56
2022/03/23 04:42:25;;;;;;;;;;;;;;;13.73;26.93;96327.28;2047937;28;1632;-56
2022/03/23 04:43:27;;;;;;;;;;;;;;;13.82;27.08;96325.66;2048465;28;1023;-57
2022/03/23 04:44:28;;;;;;;;;;;;;;;13.88;26.67;96318.06;2048740;28;1120;-57
2022/03/23 04:45:30;;;;;;;;;;;;;;;13.81;26.93;96319.56;2048880;28;1132;-57
2022/03/23 04:46:31;;;;;;;;;;;;;;;14.54;28.77;96324.72;2048869;28;1159;-59
2022/03/23 04:47:33;;;;;;;;;;;;;;;15.60;30.33;96325.75;2048426;28;1728;-57
2022/03/23 04:48:35;;;;;;;;;;;;;;;17.22;29.91;96318.16;2042217;28;1609;-60
2022/03/23 04:49:36;;;;;;;;;;;;;;;17.79;28.10;96320.47;2048364;28;1657;-58
2022/03/23 04:50:38;;;;;;;;;;;;;;;17.81;24.42;96312.31;2048632;28;1605;-57
2022/03/23 04:51:40;;;;;;;;;;;;;;;17.46;27.57;96314.88;2047933;29;1902;-56
2022/03/23 04:52:42;;;;;;;;;;;;;;;17.81;28.36;96312.31;2045240;28;1578;-56
2022/03/23 04:53:44;;;;;;;;;;;;;;;18.06;28.15;96313.31;2037450;28;3459;-57
2022/03/23 04:54:45;;;;;;;;;;;;;;;18.25;28.00;96320.22;2040113;29;1109;-56
2022/03/23 04:55:52;;;;;;;;;;;;;;;18.41;28.12;96318.47;2045422;29;1458;-57
2022/03/23 04:56:53;;;;;;;;;;;;;;;18.54;28.07;96312.69;2042827;28;4486;-58
2022/03/23 04:57:55;;;;;;;;;;;;;;;18.64;27.83;96313.41;2047563;29;1015;-57
2022/03/23 04:58:57;;;;;;;;;;;;;;;18.74;27.99;96318.59;2044083;28;977;-56
2022/03/23 04:59:58;;;;;;;;;;;;;;;18.81;27.97;96316.13;2048344;29;1364;-55
2022/03/23 05:01:00;;;;;;;;;;;;;;;18.87;28.20;96313.66;2048998;28;1558;-56
2022/03/23 05:02:02;;;;;;;;;;;;;;;18.94;28.11;96315.66;2047110;28;1532;-57
2022/03/23 05:03:04;;;;;;;;;;;;;;;19.00;28.17;96310.50;2047951;29;1516;-57
2022/03/23 05:04:06;;;;;;;;;;;;;;;19.04;28.37;96316.34;2043427;28;1620;-57
2022/03/23 05:05:09;;;;;;;;;;;;;;;19.09;28.07;96314.03;2047468;28;1459;-58
2022/03/23 05:06:10;;;;;;;;;;;;;;;19.20;27.98;96305.72;2052211;28;1167;-58
2022/03/23 05:07:12;;;;;;;;;;;;;;;19.09;28.14;96320.16;2047289;28;1563;-57
2022/03/23 05:08:14;;;;;;;;;;;;;;;19.15;28.19;96324.00;2047650;28;1489;-56
2022/03/23 05:09:16;;;;;;;;;;;;;;;19.06;28.33;96320.50;2047560;28;1016;-57
2022/03/23 05:10:17;;;;;;;;;;;;;;;17.43;24.73;96312.53;2043289;28;1688;-56
2022/03/23 05:11:19;;;;;;;;;;;;;;;16.43;26.04;96316.16;2047015;29;1910;-60
2022/03/23 05:12:20;;;;;;;;;;;;;;;15.76;25.93;96322.53;2047929;29;1748;-60
2022/03/23 05:13:23;;;;;;;;;;;;;;;16.10;27.83;96322.84;2047952;29;1611;-58
2022/03/23 05:14:25;;;;;;;;;;;;;;;16.80;28.98;96324.06;2046682;28;1410;-57
2022/03/23 05:15:26;;;;;;;;;;;;;;;17.38;29.41;96313.97;2048467;29;1016;-57
2022/03/23 05:16:28;;;;;;;;;;;;;;;17.83;29.07;96305.88;2048109;29;1633;-57
2022/03/23 05:17:31;;;;;;;;;;;;;;;18.22;28.58;96321.38;2045854;28;1850;-58
2022/03/23 05:18:33;;;;;;;;;;;;;;;18.50;28.30;96319.34;2048509;29;1429;-56
2022/03/23 05:19:35;;;;;;;;;;;;;;;18.72;28.41;96314.41;2047238;28;1555;-56
2022/03/23 05:20:37;;;;;;;;;;;;;;;18.88;28.23;96320.63;2046796;28;1666;-58
2022/03/23 05:21:38;;;;;;;;;;;;;;;19.03;28.02;96323.47;2042231;28;1590;-58
2022/03/23 05:22:40;;;;;;;;;;;;;;;19.14;28.08;96324.19;2047991;28;1751;-57
2022/03/23 05:23:42;;;;;;;;;;;;;;;19.23;27.93;96323.19;2048378;29;1247;-58
2022/03/23 05:24:43;;;;;;;;;;;;;;;19.30;27.97;96322.38;2048053;29;1023;-57
2022/03/23 05:25:45;;;;;;;;;;;;;;;19.36;27.88;96326.19;2048430;29;1220;-58
2022/03/23 05:26:46;;;;;;;;;;;;;;;19.41;28.10;96323.88;2048417;29;1100;-58
2022/03/23 05:27:48;;;;;;;;;;;;;;;19.46;27.89;96320.69;2047341;29;1180;-58
2022/03/23 05:28:50;;;;;;;;;;;;;;;19.50;27.87;96330.03;2048400;29;1096;-58
2022/03/23 05:29:51;;;;;;;;;;;;;;;19.53;27.87;96327.88;2047727;29;1031;-58
2022/03/23 05:30:53;;;;;;;;;;;;;;;19.57;27.87;96319.53;2047854;29;993;-57
2022/03/23 05:31:54;;;;;;;;;;;;;;;19.59;27.99;96320.22;2043846;29;1910;-57
2022/03/23 05:32:56;;;;;;;;;;;;;;;19.61;27.90;96327.03;2047532;29;1145;-57
2022/03/23 05:33:58;;;;;;;;;;;;;;;19.66;27.96;96326.53;2047889;29;1083;-58
2022/03/23 05:34:59;;;;;;;;;;;;;;;19.67;28.14;96322.91;2047355;29;1167;-58
2022/03/23 05:36:01;;;;;;;;;;;;;;;19.69;27.95;96316.38;2047912;29;1172;-57
2022/03/23 05:37:03;;;;;;;;;;;;;;;19.72;28.07;96325.88;2047967;29;1008;-57